Time;durP1;ratioP1;P1;durP2;ratioP2;P2;SDS_P1;SDS_P2;PMS_P1;PMS_P2;Temp;Humidity;BMP_temperature;BMP_pressure;BME280_temperature;BME280_humidity;BME280_pressure;Samples;Min_cycle;Max_cycle;Signal;HPM_P1;HPM_P2
2021/01/11 00:01:24;;;;;;;;;;;-0.10;75.00;;;;;;4910481;28;19934;-43
2021/01/11 00:03:50;;;;;;;;;;;-0.10;74.90;;;;;;4908387;28;19938;-42
2021/01/11 00:06:17;;;;;;;;;;;-0.10;74.90;;;;;;4912860;28;19945;-43
2021/01/11 00:08:45;;;;;;;;;;;-0.10;74.80;;;;;;4917195;28;20389;-43
2021/01/11 00:11:21;;;;;;;;;;;-0.10;74.80;;;;;;4913981;28;19926;-43
2021/01/11 00:13:49;;;;;;;;;;;-0.10;74.80;;;;;;4910068;28;19933;-46
2021/01/11 00:16:17;;;;;;;;;;;-0.10;74.90;;;;;;4901828;28;19930;-43
2021/01/11 00:18:44;;;;;;;;;;;-0.10;74.90;;;;;;4909693;28;20378;-45
2021/01/11 00:21:13;;;;;;;;;;;-0.10;74.90;;;;;;4915585;28;20310;-46
2021/01/11 00:23:39;;;;;;;;;;;-0.20;74.90;;;;;;4911234;28;20623;-45
2021/01/11 00:26:08;;;;;;;;;;;-0.20;74.80;;;;;;4906192;28;19934;-44
2021/01/11 00:28:34;;;;;;;;;;;-0.20;74.90;;;;;;4906608;28;19952;-42
2021/01/11 00:31:02;;;;;;;;;;;-0.20;74.90;;;;;;4914859;28;20299;-45
2021/01/11 00:33:30;;;;;;;;;;;-0.20;74.80;;;;;;4925557;28;19953;-45
2021/01/11 00:35:57;;;;;;;;;;;-0.20;74.80;;;;;;4906032;28;19930;-46
2021/01/11 00:38:23;;;;;;;;;;;-0.20;74.90;;;;;;4912131;28;20382;-42
2021/01/11 00:40:49;;;;;;;;;;;-0.20;74.90;;;;;;4911062;28;19930;-43
2021/01/11 00:43:16;;;;;;;;;;;-0.20;74.90;;;;;;4904902;28;19934;-44
2021/01/11 00:45:42;;;;;;;;;;;-0.30;74.90;;;;;;4904374;28;19934;-44
2021/01/11 00:48:09;;;;;;;;;;;-0.30;74.90;;;;;;4912917;28;19937;-43
2021/01/11 00:50:35;;;;;;;;;;;-0.30;74.90;;;;;;4916482;28;19948;-44
2021/01/11 00:53:04;;;;;;;;;;;-0.30;74.90;;;;;;4912880;28;19934;-43
2021/01/11 00:55:31;;;;;;;;;;;-0.30;75.00;;;;;;4913819;28;20294;-44
2021/01/11 00:57:57;;;;;;;;;;;-0.30;75.00;;;;;;4908901;28;19938;-43
2021/01/11 01:00:24;;;;;;;;;;;-0.30;75.10;;;;;;4910444;28;20544;-42
2021/01/11 01:02:50;;;;;;;;;;;-0.30;75.10;;;;;;4912073;28;19930;-41
2021/01/11 01:05:16;;;;;;;;;;;-0.30;75.20;;;;;;4902816;28;20036;-43
2021/01/11 01:07:43;;;;;;;;;;;-0.30;75.20;;;;;;4920509;28;20012;-43
2021/01/11 01:10:12;;;;;;;;;;;-0.30;75.10;;;;;;4916997;28;19938;-43
2021/01/11 01:12:39;;;;;;;;;;;-0.30;75.10;;;;;;4912946;28;19926;-43
2021/01/11 01:15:06;;;;;;;;;;;-0.30;75.20;;;;;;4914616;28;19941;-45
2021/01/11 01:17:37;;;;;;;;;;;-0.30;75.20;;;;;;4913337;28;20401;-42
2021/01/11 01:20:05;;;;;;;;;;;-0.30;75.10;;;;;;4910893;28;20319;-44
2021/01/11 01:22:31;;;;;;;;;;;-0.30;75.10;;;;;;4911886;28;19926;-45
2021/01/11 01:24:58;;;;;;;;;;;-0.30;75.10;;;;;;4916232;28;19927;-46
2021/01/11 01:27:24;;;;;;;;;;;-0.30;75.20;;;;;;4891911;28;19941;-44
2021/01/11 01:29:53;;;;;;;;;;;-0.30;75.40;;;;;;4911185;28;19934;-43
2021/01/11 01:32:20;;;;;;;;;;;-0.30;75.50;;;;;;4912034;28;19933;-44
2021/01/11 01:34:46;;;;;;;;;;;-0.30;75.50;;;;;;4915286;28;19933;-45
2021/01/11 01:37:12;;;;;;;;;;;-0.30;75.60;;;;;;4915877;28;19930;-42
2021/01/11 01:39:38;;;;;;;;;;;-0.30;75.50;;;;;;4925523;28;19938;-45
2021/01/11 01:42:04;;;;;;;;;;;-0.30;75.60;;;;;;4892087;28;19933;-43
2021/01/11 01:44:30;;;;;;;;;;;-0.30;75.70;;;;;;4917060;28;19957;-45
2021/01/11 01:46:57;;;;;;;;;;;-0.30;75.60;;;;;;4912850;28;19930;-43
2021/01/11 01:49:23;;;;;;;;;;;-0.30;75.50;;;;;;4925162;28;19933;-44
2021/01/11 01:51:49;;;;;;;;;;;-0.30;75.50;;;;;;4919715;28;19934;-45
2021/01/11 01:54:15;;;;;;;;;;;-0.30;75.50;;;;;;4892848;28;19937;-44
2021/01/11 01:56:42;;;;;;;;;;;-0.30;75.50;;;;;;4902965;28;19942;-43
2021/01/11 01:59:09;;;;;;;;;;;-0.40;75.40;;;;;;4925493;28;19926;-44
2021/01/11 02:01:36;;;;;;;;;;;-0.30;75.30;;;;;;4915857;28;19961;-42
2021/01/11 02:04:02;;;;;;;;;;;-0.30;75.30;;;;;;4913747;28;20028;-45
2021/01/11 02:06:31;;;;;;;;;;;-0.40;75.30;;;;;;4914220;28;19934;-43
2021/01/11 02:09:18;;;;;;;;;;;-0.40;75.30;;;;;;4913438;28;19926;-45
2021/01/11 02:11:54;;;;;;;;;;;-0.40;75.30;;;;;;4915004;28;19985;-44
2021/01/11 02:14:24;;;;;;;;;;;-0.40;75.30;;;;;;4912471;28;19930;-44
2021/01/11 02:17:14;;;;;;;;;;;-0.40;75.10;;;;;;4912940;28;20282;-45
2021/01/11 02:19:43;;;;;;;;;;;-0.40;75.10;;;;;;4908159;28;19926;-45
2021/01/11 02:22:20;;;;;;;;;;;-0.40;75.00;;;;;;4911641;28;19926;-45
2021/01/11 02:24:49;;;;;;;;;;;-0.40;75.00;;;;;;4913262;28;19933;-45
2021/01/11 02:27:34;;;;;;;;;;;-0.40;75.10;;;;;;4911506;28;20862;-44
2021/01/11 02:30:06;;;;;;;;;;;-0.40;75.10;;;;;;4911019;28;19933;-45
2021/01/11 02:32:33;;;;;;;;;;;-0.50;75.10;;;;;;4922219;28;20441;-42
2021/01/11 02:35:01;;;;;;;;;;;-0.50;75.10;;;;;;4905146;28;20020;-44
2021/01/11 02:37:27;;;;;;;;;;;-0.50;75.30;;;;;;4912462;28;19942;-45
2021/01/11 02:39:53;;;;;;;;;;;-0.50;75.30;;;;;;4912064;28;20393;-42
2021/01/11 02:42:20;;;;;;;;;;;-0.50;75.30;;;;;;4911198;28;20286;-45
2021/01/11 02:44:48;;;;;;;;;;;-0.50;75.30;;;;;;4904556;28;19934;-42
2021/01/11 02:47:17;;;;;;;;;;;-0.50;75.40;;;;;;4913986;28;19936;-42
2021/01/11 02:49:47;;;;;;;;;;;-0.50;75.50;;;;;;4925482;28;19930;-43
2021/01/11 02:52:21;;;;;;;;;;;-0.50;75.60;;;;;;4910565;28;19934;-45
2021/01/11 02:55:03;;;;;;;;;;;-0.50;75.60;;;;;;4917331;28;19933;-45
2021/01/11 02:57:31;;;;;;;;;;;-0.50;75.60;;;;;;4910904;28;19926;-43
2021/01/11 02:59:59;;;;;;;;;;;-0.50;75.60;;;;;;4928992;28;19926;-45
2021/01/11 03:02:27;;;;;;;;;;;-0.50;75.70;;;;;;4907578;28;19934;-45
2021/01/11 03:04:54;;;;;;;;;;;-0.50;75.50;;;;;;4909904;28;19930;-43
2021/01/11 03:07:20;;;;;;;;;;;-0.50;75.50;;;;;;4919255;28;19930;-41
2021/01/11 03:09:48;;;;;;;;;;;-0.50;75.60;;;;;;4909791;28;19933;-44
2021/01/11 03:12:14;;;;;;;;;;;-0.50;75.50;;;;;;4903259;28;20020;-43
2021/01/11 03:14:41;;;;;;;;;;;-0.50;75.40;;;;;;4910886;28;20018;-44
2021/01/11 03:17:07;;;;;;;;;;;-0.50;75.40;;;;;;4898783;28;19926;-43
2021/01/11 03:19:34;;;;;;;;;;;-0.50;75.40;;;;;;4912159;28;19934;-44
2021/01/11 03:22:02;;;;;;;;;;;-0.50;75.30;;;;;;4907468;28;20465;-43
2021/01/11 03:24:28;;;;;;;;;;;-0.50;75.10;;;;;;4910061;28;20244;-43
2021/01/11 03:26:59;;;;;;;;;;;-0.50;75.10;;;;;;4904718;28;19937;-44
2021/01/11 03:29:25;;;;;;;;;;;-0.50;75.20;;;;;;4905990;28;19934;-44
2021/01/11 03:31:51;;;;;;;;;;;-0.60;75.10;;;;;;4912713;28;19934;-44
2021/01/11 03:34:18;;;;;;;;;;;-0.60;75.00;;;;;;4909005;28;19936;-42
2021/01/11 03:36:46;;;;;;;;;;;-0.60;74.90;;;;;;4894693;28;22428;-44
2021/01/11 03:39:12;;;;;;;;;;;-0.60;74.90;;;;;;4892139;28;19941;-45
2021/01/11 03:41:40;;;;;;;;;;;-0.60;74.90;;;;;;4893100;28;19957;-45
2021/01/11 03:44:06;;;;;;;;;;;-0.60;75.00;;;;;;4904760;28;19965;-45
2021/01/11 03:46:33;;;;;;;;;;;-0.60;75.00;;;;;;4897117;28;19941;-44
2021/01/11 03:49:00;;;;;;;;;;;-0.60;75.00;;;;;;4894047;28;19954;-45
2021/01/11 03:51:27;;;;;;;;;;;-0.60;75.00;;;;;;4888798;28;20548;-44
2021/01/11 03:53:53;;;;;;;;;;;-0.60;75.00;;;;;;4910137;28;19926;-44
2021/01/11 03:56:20;;;;;;;;;;;-0.60;75.10;;;;;;4916260;28;19965;-44
2021/01/11 03:58:46;;;;;;;;;;;-0.70;75.00;;;;;;4910385;28;19926;-44
2021/01/11 04:01:12;;;;;;;;;;;-0.70;74.90;;;;;;4911756;28;20414;-45
2021/01/11 04:03:39;;;;;;;;;;;-0.70;74.90;;;;;;4908863;28;20049;-45
2021/01/11 04:06:07;;;;;;;;;;;-0.70;74.90;;;;;;4913145;28;20437;-43
2021/01/11 04:08:33;;;;;;;;;;;-0.70;74.80;;;;;;4905643;28;19945;-45
2021/01/11 04:11:00;;;;;;;;;;;-0.70;74.90;;;;;;4912564;28;20033;-45
2021/01/11 04:13:26;;;;;;;;;;;-0.70;75.00;;;;;;4912842;28;19926;-42
2021/01/11 04:15:52;;;;;;;;;;;-0.70;74.90;;;;;;4911102;28;19934;-44
2021/01/11 04:18:18;;;;;;;;;;;-0.70;74.70;;;;;;4909840;28;19930;-44
2021/01/11 04:20:45;;;;;;;;;;;-0.70;74.70;;;;;;4910441;28;19930;-44
2021/01/11 04:23:11;;;;;;;;;;;-0.80;74.80;;;;;;4914226;28;19926;-44
2021/01/11 04:25:37;;;;;;;;;;;-0.80;74.90;;;;;;4907557;28;19933;-44
2021/01/11 04:28:04;;;;;;;;;;;-0.80;75.00;;;;;;4912352;28;19941;-43
2021/01/11 04:30:30;;;;;;;;;;;-0.80;75.00;;;;;;4911002;28;20371;-44
2021/01/11 04:32:57;;;;;;;;;;;-0.80;75.00;;;;;;4916863;28;19942;-43
2021/01/11 04:35:24;;;;;;;;;;;-0.80;75.00;;;;;;4912472;28;20367;-45
2021/01/11 04:37:53;;;;;;;;;;;-0.80;75.00;;;;;;4913321;28;19926;-41
2021/01/11 04:40:19;;;;;;;;;;;-0.80;74.90;;;;;;4914653;28;19934;-43
2021/01/11 04:43:18;;;;;;;;;;;-0.80;74.90;;;;;;4910878;28;20379;-44
2021/01/11 04:45:45;;;;;;;;;;;-0.80;74.90;;;;;;4883163;28;19949;-44
2021/01/11 04:48:12;;;;;;;;;;;-0.80;74.90;;;;;;4911701;28;20349;-44
2021/01/11 04:50:38;;;;;;;;;;;-0.80;74.80;;;;;;4915097;28;20400;-44
2021/01/11 04:53:09;;;;;;;;;;;-0.80;74.70;;;;;;4906644;28;20376;-44
2021/01/11 04:55:39;;;;;;;;;;;-0.80;74.70;;;;;;4917618;28;20398;-41
2021/01/11 04:58:09;;;;;;;;;;;-0.80;74.70;;;;;;4915427;28;19929;-42
2021/01/11 05:00:39;;;;;;;;;;;-0.80;74.80;;;;;;4898182;28;19941;-44
2021/01/11 05:03:09;;;;;;;;;;;-0.90;75.00;;;;;;4915525;28;19930;-43
2021/01/11 05:05:36;;;;;;;;;;;-0.80;75.10;;;;;;4911166;28;19932;-41
2021/01/11 05:08:03;;;;;;;;;;;-0.90;75.00;;;;;;4925612;28;19926;-44
2021/01/11 05:10:30;;;;;;;;;;;-0.90;74.80;;;;;;4916255;28;20024;-43
2021/01/11 05:12:57;;;;;;;;;;;-0.90;74.90;;;;;;4909777;28;19927;-41
2021/01/11 05:15:28;;;;;;;;;;;-0.90;74.80;;;;;;4926990;28;20071;-43
2021/01/11 05:17:54;;;;;;;;;;;-0.90;74.80;;;;;;4912533;28;20366;-41
2021/01/11 05:20:21;;;;;;;;;;;-0.90;74.80;;;;;;4916721;28;19930;-44
2021/01/11 05:22:47;;;;;;;;;;;-0.90;74.60;;;;;;4916955;28;19930;-43
2021/01/11 05:25:15;;;;;;;;;;;-0.90;74.60;;;;;;4911406;28;20413;-45
2021/01/11 05:27:42;;;;;;;;;;;-0.90;74.60;;;;;;4910641;28;19926;-45
2021/01/11 05:30:10;;;;;;;;;;;-0.90;74.50;;;;;;4918983;28;20297;-44
2021/01/11 05:32:37;;;;;;;;;;;-0.90;74.50;;;;;;4913428;28;19949;-45
2021/01/11 05:35:03;;;;;;;;;;;-0.90;74.40;;;;;;4915255;28;20438;-43
2021/01/11 05:37:36;;;;;;;;;;;-0.90;74.50;;;;;;4924818;28;20302;-42
2021/01/11 05:40:05;;;;;;;;;;;-1.00;74.50;;;;;;4913088;28;19930;-43
2021/01/11 05:42:31;;;;;;;;;;;-1.00;74.50;;;;;;4910152;28;20385;-43
2021/01/11 05:45:10;;;;;;;;;;;-1.00;74.50;;;;;;4921684;28;19941;-44
2021/01/11 05:47:55;;;;;;;;;;;-1.00;74.50;;;;;;4931122;28;19930;-43
2021/01/11 05:50:21;;;;;;;;;;;-1.00;74.50;;;;;;4912843;28;19941;-44
2021/01/11 05:52:47;;;;;;;;;;;-1.00;74.40;;;;;;4905849;28;20420;-43
2021/01/11 05:55:40;;;;;;;;;;;-1.00;74.40;;;;;;4914598;28;19926;-43
2021/01/11 05:58:06;;;;;;;;;;;-1.00;74.40;;;;;;4911479;28;20060;-43
2021/01/11 06:00:36;;;;;;;;;;;-1.00;74.40;;;;;;4912915;28;20432;-42
2021/01/11 06:03:03;;;;;;;;;;;-1.00;74.30;;;;;;4912537;28;21534;-43
2021/01/11 06:05:32;;;;;;;;;;;-1.00;74.30;;;;;;4911788;28;19932;-41
2021/01/11 06:07:59;;;;;;;;;;;-1.00;74.20;;;;;;4893288;28;19927;-40
2021/01/11 06:10:27;;;;;;;;;;;-1.00;74.10;;;;;;4912905;28;20382;-42
2021/01/11 06:12:54;;;;;;;;;;;-1.10;74.10;;;;;;4915101;28;20526;-40
2021/01/11 06:15:22;;;;;;;;;;;-1.10;74.20;;;;;;4928087;28;19934;-42
2021/01/11 06:17:50;;;;;;;;;;;-1.10;74.30;;;;;;4907481;28;19937;-43
2021/01/11 06:20:27;;;;;;;;;;;-1.10;74.30;;;;;;4915121;28;19933;-41
2021/01/11 06:23:04;;;;;;;;;;;-1.10;74.30;;;;;;4910371;28;19947;-42
2021/01/11 06:25:30;;;;;;;;;;;-1.10;74.30;;;;;;4912715;28;19935;-42
2021/01/11 06:27:57;;;;;;;;;;;-1.20;74.40;;;;;;4908824;28;20375;-43
2021/01/11 06:30:33;;;;;;;;;;;-1.20;74.30;;;;;;4912195;28;20024;-42
2021/01/11 06:33:09;;;;;;;;;;;-1.20;74.30;;;;;;4909168;28;20052;-44
2021/01/11 06:35:38;;;;;;;;;;;-1.20;74.20;;;;;;4912566;28;20387;-43
2021/01/11 06:38:07;;;;;;;;;;;-1.20;73.90;;;;;;4914408;28;19934;-44
2021/01/11 06:40:34;;;;;;;;;;;-1.20;73.80;;;;;;4912162;28;20375;-43
2021/01/11 06:43:01;;;;;;;;;;;-1.20;74.00;;;;;;4911059;28;20386;-44
2021/01/11 06:45:34;;;;;;;;;;;-1.30;74.20;;;;;;4918558;28;19930;-41
2021/01/11 06:48:06;;;;;;;;;;;-1.30;74.20;;;;;;4914493;28;19942;-44
2021/01/11 06:50:33;;;;;;;;;;;-1.30;74.00;;;;;;4909949;28;20760;-44
2021/01/11 06:53:00;;;;;;;;;;;-1.30;74.00;;;;;;4909822;28;20284;-43
2021/01/11 06:55:26;;;;;;;;;;;-1.30;74.30;;;;;;4916750;28;19926;-42
2021/01/11 06:58:00;;;;;;;;;;;-1.30;74.30;;;;;;4906508;28;19926;-44
2021/01/11 07:00:37;;;;;;;;;;;-1.30;74.30;;;;;;4926747;28;19940;-43
2021/01/11 07:03:04;;;;;;;;;;;-1.30;74.30;;;;;;4913567;28;20393;-43
2021/01/11 07:05:33;;;;;;;;;;;-1.30;74.30;;;;;;4912024;28;19934;-44
2021/01/11 07:08:02;;;;;;;;;;;-1.30;74.50;;;;;;4913105;28;19941;-45
2021/01/11 07:10:29;;;;;;;;;;;-1.30;74.60;;;;;;4912675;28;20306;-46
2021/01/11 07:13:14;;;;;;;;;;;-1.30;74.80;;;;;;4905031;28;19930;-43
2021/01/11 07:15:40;;;;;;;;;;;-1.30;74.80;;;;;;4911675;28;19933;-42
2021/01/11 07:18:06;;;;;;;;;;;-1.30;74.90;;;;;;4911217;28;19934;-45
2021/01/11 07:20:44;;;;;;;;;;;-1.30;74.90;;;;;;4906993;28;19934;-43
2021/01/11 07:23:10;;;;;;;;;;;-1.30;74.90;;;;;;4911522;28;19934;-46
2021/01/11 07:25:37;;;;;;;;;;;-1.30;74.90;;;;;;4911894;28;20106;-45
2021/01/11 07:28:03;;;;;;;;;;;-1.30;74.80;;;;;;4905452;28;20294;-43
2021/01/11 07:30:35;;;;;;;;;;;-1.30;74.80;;;;;;4914357;28;20043;-42
2021/01/11 07:33:10;;;;;;;;;;;-1.30;74.80;;;;;;4911967;28;19937;-45
2021/01/11 07:35:39;;;;;;;;;;;-1.30;74.60;;;;;;4912022;28;19930;-45
2021/01/11 07:38:12;;;;;;;;;;;-1.30;74.60;;;;;;4903925;28;20346;-45
2021/01/11 07:40:41;;;;;;;;;;;-1.30;74.50;;;;;;4910068;28;19933;-44
2021/01/11 07:43:10;;;;;;;;;;;-1.30;74.50;;;;;;4902943;28;20017;-44
2021/01/11 07:45:38;;;;;;;;;;;-1.30;74.50;;;;;;4911406;28;23373;-46
2021/01/11 07:48:06;;;;;;;;;;;-1.30;74.40;;;;;;4908728;28;19926;-45
2021/01/11 07:50:32;;;;;;;;;;;-1.30;74.60;;;;;;4897185;28;19941;-43
2021/01/11 07:52:58;;;;;;;;;;;-1.30;74.80;;;;;;4915753;28;19933;-43
2021/01/11 07:55:34;;;;;;;;;;;-1.30;74.80;;;;;;4922180;28;20008;-45
2021/01/11 07:58:00;;;;;;;;;;;-1.30;74.80;;;;;;4909489;28;19934;-42
2021/01/11 08:00:27;;;;;;;;;;;-1.30;74.80;;;;;;4903982;28;19940;-45
2021/01/11 08:02:54;;;;;;;;;;;-1.20;74.80;;;;;;4906271;28;20621;-49
2021/01/11 08:05:24;;;;;;;;;;;-1.20;74.80;;;;;;4914247;28;19930;-44
2021/01/11 08:08:04;;;;;;;;;;;-1.20;74.90;;;;;;4921190;28;19942;-44
2021/01/11 08:10:31;;;;;;;;;;;-1.20;75.10;;;;;;4914073;28;19930;-45
2021/01/11 08:13:05;;;;;;;;;;;-1.20;75.30;;;;;;4909242;28;20291;-40
2021/01/11 08:15:31;;;;;;;;;;;-1.10;75.30;;;;;;4924234;28;19934;-43
2021/01/11 08:17:57;;;;;;;;;;;-1.10;75.30;;;;;;4910831;28;21181;-42
2021/01/11 08:20:24;;;;;;;;;;;-1.10;75.40;;;;;;4907134;28;20759;-45
2021/01/11 08:22:50;;;;;;;;;;;-1.00;75.40;;;;;;4902836;28;20591;-45
2021/01/11 08:25:18;;;;;;;;;;;-1.00;75.20;;;;;;4904054;28;20367;-45
2021/01/11 08:27:44;;;;;;;;;;;-1.00;75.10;;;;;;4908037;28;19934;-42
2021/01/11 08:30:12;;;;;;;;;;;-1.00;75.20;;;;;;4909052;28;19934;-45
2021/01/11 08:32:39;;;;;;;;;;;-0.90;75.10;;;;;;4912578;28;20604;-45
2021/01/11 08:35:12;;;;;;;;;;;-0.90;75.10;;;;;;4912437;28;19934;-44
2021/01/11 08:37:44;;;;;;;;;;;-0.80;75.00;;;;;;4911015;28;20286;-42
2021/01/11 08:40:11;;;;;;;;;;;-0.80;74.90;;;;;;4911977;28;20349;-46
2021/01/11 08:42:39;;;;;;;;;;;-0.80;75.00;;;;;;4909403;28;19940;-45
2021/01/11 08:45:26;;;;;;;;;;;-0.80;75.20;;;;;;4910418;28;20863;-42
2021/01/11 08:48:00;;;;;;;;;;;-0.80;75.20;;;;;;4913623;28;19934;-45
2021/01/11 08:50:26;;;;;;;;;;;-0.90;74.90;;;;;;4914998;28;20005;-44
2021/01/11 08:52:52;;;;;;;;;;;-0.90;74.90;;;;;;4912813;28;19941;-44
2021/01/11 08:55:19;;;;;;;;;;;-0.90;75.00;;;;;;4906005;28;19981;-43
2021/01/11 08:57:58;;;;;;;;;;;-0.90;75.30;;;;;;4916489;28;19937;-44
2021/01/11 09:00:25;;;;;;;;;;;-0.80;75.40;;;;;;4914662;28;20034;-45
2021/01/11 09:02:51;;;;;;;;;;;-0.80;75.40;;;;;;4908842;28;19930;-43
2021/01/11 09:05:19;;;;;;;;;;;-0.70;75.40;;;;;;4911313;28;19933;-45
2021/01/11 09:07:46;;;;;;;;;;;-0.70;75.40;;;;;;4906684;28;19930;-44
2021/01/11 09:10:30;;;;;;;;;;;-0.60;75.30;;;;;;4906914;28;19941;-42
2021/01/11 09:12:57;;;;;;;;;;;-0.60;75.20;;;;;;4906953;28;21014;-45
2021/01/11 09:15:24;;;;;;;;;;;-0.50;75.00;;;;;;4910072;28;19934;-45
2021/01/11 09:18:19;;;;;;;;;;;-0.50;75.00;;;;;;4916908;28;19973;-44
2021/01/11 09:20:45;;;;;;;;;;;-0.50;74.90;;;;;;4913327;28;20405;-45
2021/01/11 09:23:12;;;;;;;;;;;-0.40;74.90;;;;;;4913467;28;20620;-44
2021/01/11 09:25:38;;;;;;;;;;;-0.30;74.90;;;;;;4910355;28;19936;-44
2021/01/11 09:28:08;;;;;;;;;;;-0.30;74.60;;;;;;4916852;28;19934;-44
2021/01/11 09:30:35;;;;;;;;;;;-0.30;74.50;;;;;;4911318;28;20059;-43
2021/01/11 09:33:03;;;;;;;;;;;-0.20;74.50;;;;;;4913772;28;19941;-45
2021/01/11 09:35:29;;;;;;;;;;;-0.20;74.60;;;;;;4912795;28;19934;-42
2021/01/11 09:37:57;;;;;;;;;;;-0.10;74.70;;;;;;4915234;28;19934;-43
2021/01/11 09:40:24;;;;;;;;;;;0.00;74.80;;;;;;4916615;28;20069;-44
2021/01/11 09:42:50;;;;;;;;;;;0.10;74.70;;;;;;4912838;28;20477;-43
2021/01/11 09:45:17;;;;;;;;;;;0.10;74.20;;;;;;4905870;28;19926;-44
2021/01/11 09:47:44;;;;;;;;;;;0.30;74.00;;;;;;4918870;28;20021;-45
2021/01/11 09:50:14;;;;;;;;;;;0.30;74.00;;;;;;4918166;28;19933;-44
2021/01/11 09:52:40;;;;;;;;;;;0.40;74.00;;;;;;4910924;28;20391;-45
2021/01/11 09:55:07;;;;;;;;;;;0.50;74.10;;;;;;4905459;28;19945;-42
2021/01/11 09:57:39;;;;;;;;;;;0.60;73.90;;;;;;4908686;28;19934;-44
2021/01/11 10:00:07;;;;;;;;;;;0.70;73.70;;;;;;4904083;28;19984;-43
2021/01/11 10:02:33;;;;;;;;;;;0.80;73.90;;;;;;4927453;28;19930;-43
2021/01/11 10:05:00;;;;;;;;;;;0.90;73.90;;;;;;4919360;28;19937;-44
2021/01/11 10:07:29;;;;;;;;;;;1.10;73.70;;;;;;4927859;28;20358;-45
2021/01/11 10:09:55;;;;;;;;;;;1.30;73.70;;;;;;4914504;28;19953;-45
2021/01/11 10:12:22;;;;;;;;;;;1.50;73.40;;;;;;4908908;28;20607;-45
2021/01/11 10:14:48;;;;;;;;;;;1.70;73.10;;;;;;4916271;28;19961;-45
2021/01/11 10:17:14;;;;;;;;;;;1.60;71.50;;;;;;4911177;28;20009;-45
2021/01/11 10:19:41;;;;;;;;;;;1.70;71.50;;;;;;4909604;28;20050;-45
2021/01/11 10:22:07;;;;;;;;;;;1.80;71.60;;;;;;4904462;28;19934;-44
2021/01/11 10:24:34;;;;;;;;;;;1.90;71.40;;;;;;4912554;28;19930;-43
2021/01/11 10:27:00;;;;;;;;;;;2.00;71.20;;;;;;4905953;28;20018;-45
2021/01/11 10:32:49;;;;;;;;;;;2.10;70.60;;;;;;4714235;22;20999;-81
2021/01/11 10:35:15;;;;;;;;;;;2.10;70.30;;;;;;4710676;28;19934;-81
2021/01/11 10:37:42;;;;;;;;;;;2.20;70.30;;;;;;4301332;28;19927;-81
2021/01/11 10:40:09;;;;;;;;;;;2.20;70.00;;;;;;4061337;28;21614;-83
2021/01/11 10:42:37;;;;;;;;;;;2.30;70.30;;;;;;4001439;28;22648;-82
2021/01/11 10:45:12;;;;;;;;;;;2.40;70.30;;;;;;3926469;28;20770;-83
2021/01/11 10:47:39;;;;;;;;;;;2.50;70.10;;;;;;3849000;28;20672;-82
2021/01/11 10:50:05;;;;;;;;;;;2.50;70.00;;;;;;3933613;28;21469;-82
2021/01/11 10:52:32;;;;;;;;;;;2.60;69.90;;;;;;4022770;28;19972;-82
2021/01/11 10:54:58;;;;;;;;;;;2.60;69.60;;;;;;3990751;28;20538;-82
2021/01/11 10:57:26;;;;;;;;;;;2.60;69.80;;;;;;3923977;29;19931;-83
2021/01/11 10:59:52;;;;;;;;;;;2.70;69.90;;;;;;4134395;28;19935;-82
2021/01/11 11:02:19;;;;;;;;;;;2.70;70.20;;;;;;4100501;28;20413;-83
2021/01/11 11:04:45;;;;;;;;;;;2.70;70.20;;;;;;4184768;28;19931;-82
2021/01/11 11:07:12;;;;;;;;;;;2.80;70.10;;;;;;4447680;28;19938;-82
2021/01/11 11:09:40;;;;;;;;;;;2.90;70.00;;;;;;4979585;28;19997;-82
2021/01/11 11:12:06;;;;;;;;;;;2.90;70.00;;;;;;4970440;28;19997;-83
2021/01/11 11:14:32;;;;;;;;;;;3.00;70.00;;;;;;4960928;28;20025;-82
2021/01/11 11:16:58;;;;;;;;;;;3.00;69.90;;;;;;4975552;28;19932;-82
2021/01/11 11:19:25;;;;;;;;;;;3.00;69.80;;;;;;4976716;28;19980;-82
2021/01/11 11:21:51;;;;;;;;;;;3.00;69.90;;;;;;4991645;28;19926;-82
2021/01/11 11:24:17;;;;;;;;;;;3.00;69.40;;;;;;4984325;28;19933;-82
2021/01/11 11:27:01;;;;;;;;;;;2.90;69.40;;;;;;4970915;28;19926;-82
2021/01/11 11:29:27;;;;;;;;;;;2.80;69.10;;;;;;4988076;28;20064;-82
2021/01/11 11:31:57;;;;;;;;;;;2.70;69.30;;;;;;4974842;28;19926;-82
2021/01/11 11:34:40;;;;;;;;;;;2.60;69.40;;;;;;4984902;28;19945;-82
2021/01/11 11:37:09;;;;;;;;;;;2.60;69.60;;;;;;4991966;28;19949;-82
2021/01/11 11:39:38;;;;;;;;;;;2.50;70.00;;;;;;4965070;28;19934;-82
2021/01/11 11:42:09;;;;;;;;;;;2.50;70.50;;;;;;4986142;28;19925;-82
2021/01/11 11:44:35;;;;;;;;;;;2.50;70.60;;;;;;4983578;28;19926;-82
2021/01/11 11:47:03;;;;;;;;;;;2.60;70.60;;;;;;4975378;28;20456;-81
2021/01/11 11:49:29;;;;;;;;;;;2.50;70.50;;;;;;4985551;28;20589;-81
2021/01/11 11:51:57;;;;;;;;;;;2.50;70.20;;;;;;4973927;28;19941;-82
2021/01/11 11:54:24;;;;;;;;;;;2.50;70.10;;;;;;4956646;28;19934;-82
2021/01/11 11:56:50;;;;;;;;;;;2.40;70.10;;;;;;4977756;28;19932;-81
2021/01/11 11:59:17;;;;;;;;;;;2.40;70.10;;;;;;4973060;28;19934;-82
2021/01/11 12:01:43;;;;;;;;;;;2.40;70.20;;;;;;4984817;28;19926;-82
2021/01/11 12:04:09;;;;;;;;;;;2.40;69.90;;;;;;4968413;28;20011;-82
2021/01/11 12:06:40;;;;;;;;;;;2.50;70.10;;;;;;4989362;28;19930;-81
2021/01/11 12:09:07;;;;;;;;;;;2.60;70.00;;;;;;4987635;28;20016;-82
2021/01/11 12:11:42;;;;;;;;;;;2.50;70.00;;;;;;4977873;28;19926;-82
2021/01/11 12:14:08;;;;;;;;;;;2.60;70.20;;;;;;4987424;28;20004;-82
2021/01/11 12:16:34;;;;;;;;;;;2.60;69.70;;;;;;4981163;28;19934;-82
2021/01/11 12:19:01;;;;;;;;;;;2.60;69.90;;;;;;4957929;28;20006;-81
2021/01/11 12:21:31;;;;;;;;;;;2.70;69.50;;;;;;4993893;28;19926;-82
2021/01/11 12:23:58;;;;;;;;;;;2.80;69.70;;;;;;4988543;28;20361;-82
2021/01/11 12:26:24;;;;;;;;;;;2.70;68.60;;;;;;4972971;28;19998;-82
2021/01/11 12:28:50;;;;;;;;;;;2.70;69.00;;;;;;4983247;28;19932;-79
2021/01/11 12:31:25;;;;;;;;;;;2.80;69.30;;;;;;4988200;28;19937;-80
2021/01/11 12:33:51;;;;;;;;;;;3.00;68.60;;;;;;4987327;28;20017;-80
2021/01/11 12:36:30;;;;;;;;;;;3.10;68.40;;;;;;4989652;28;20533;-80
2021/01/11 12:38:57;;;;;;;;;;;3.20;68.40;;;;;;4973176;28;20038;-80
2021/01/11 12:41:24;;;;;;;;;;;3.20;68.50;;;;;;4972861;28;19961;-79
2021/01/11 12:43:51;;;;;;;;;;;3.30;68.60;;;;;;4982497;28;19933;-80
2021/01/11 12:46:18;;;;;;;;;;;3.40;68.40;;;;;;4991448;28;20064;-80
2021/01/11 12:48:46;;;;;;;;;;;3.30;66.60;;;;;;4999272;28;20526;-80
2021/01/11 12:51:13;;;;;;;;;;;3.40;66.90;;;;;;5002063;28;19986;-80
2021/01/11 12:53:40;;;;;;;;;;;3.40;66.80;;;;;;4991111;28;19988;-80
2021/01/11 12:56:27;;;;;;;;;;;3.50;66.60;;;;;;4983672;28;19926;-80
2021/01/11 12:58:54;;;;;;;;;;;3.50;66.40;;;;;;4968459;28;19936;-79
2021/01/11 13:01:25;;;;;;;;;;;3.50;66.50;;;;;;4989478;28;19936;-79
2021/01/11 13:03:53;;;;;;;;;;;3.50;66.50;;;;;;4985344;28;19980;-79
2021/01/11 13:06:21;;;;;;;;;;;3.50;65.80;;;;;;4981381;28;19941;-79
2021/01/11 13:08:47;;;;;;;;;;;3.40;65.80;;;;;;4983932;28;19964;-79
2021/01/11 13:11:14;;;;;;;;;;;3.30;65.80;;;;;;4986739;28;20282;-79
2021/01/11 13:13:40;;;;;;;;;;;3.30;66.20;;;;;;4982981;28;19932;-79
2021/01/11 13:16:07;;;;;;;;;;;3.20;66.30;;;;;;4969312;28;20534;-79
2021/01/11 13:18:33;;;;;;;;;;;3.20;66.20;;;;;;4979513;28;20271;-76
2021/01/11 13:21:00;;;;;;;;;;;3.10;66.50;;;;;;4988315;28;19932;-76
2021/01/11 13:23:26;;;;;;;;;;;3.10;66.80;;;;;;4967584;28;19930;-77
2021/01/11 13:25:53;;;;;;;;;;;3.20;67.20;;;;;;4971390;28;19925;-77
2021/01/11 13:28:21;;;;;;;;;;;3.20;67.30;;;;;;4981424;28;20028;-77
2021/01/11 13:30:47;;;;;;;;;;;3.30;67.30;;;;;;4986225;28;20416;-77
2021/01/11 13:33:14;;;;;;;;;;;3.30;65.60;;;;;;4981119;28;20454;-77
2021/01/11 13:35:41;;;;;;;;;;;3.30;65.90;;;;;;4971630;28;19925;-77
2021/01/11 13:38:07;;;;;;;;;;;3.40;66.30;;;;;;4981427;28;19980;-77
2021/01/11 13:40:34;;;;;;;;;;;3.50;66.40;;;;;;4972249;28;19940;-78
2021/01/11 13:43:00;;;;;;;;;;;3.60;66.00;;;;;;4988457;28;19945;-78
2021/01/11 13:45:30;;;;;;;;;;;3.70;65.20;;;;;;4964287;28;19932;-78
2021/01/11 13:47:57;;;;;;;;;;;3.80;64.40;;;;;;4981543;28;19954;-79
2021/01/11 13:50:23;;;;;;;;;;;3.90;62.50;;;;;;4973115;28;19936;-78
2021/01/11 13:52:51;;;;;;;;;;;4.00;60.50;;;;;;4982341;28;19937;-79
2021/01/11 13:55:17;;;;;;;;;;;4.10;60.20;;;;;;4949351;28;20374;-78
2021/01/11 13:57:43;;;;;;;;;;;4.10;59.60;;;;;;4984725;28;20323;-79
2021/01/11 14:00:10;;;;;;;;;;;4.10;58.80;;;;;;4968209;28;20033;-78
2021/01/11 14:02:37;;;;;;;;;;;4.20;58.90;;;;;;4981284;28;19930;-79
2021/01/11 14:05:04;;;;;;;;;;;4.20;59.50;;;;;;4984136;28;19933;-78
2021/01/11 14:07:31;;;;;;;;;;;4.20;58.80;;;;;;4968742;28;20363;-79
2021/01/11 14:09:58;;;;;;;;;;;4.20;58.50;;;;;;4984103;28;20017;-77
2021/01/11 14:12:25;;;;;;;;;;;4.20;57.80;;;;;;4972422;28;19932;-77
2021/01/11 14:14:51;;;;;;;;;;;4.20;57.30;;;;;;4974084;28;20004;-79
2021/01/11 14:17:18;;;;;;;;;;;4.20;56.70;;;;;;4978086;28;20009;-76
2021/01/11 14:19:44;;;;;;;;;;;4.20;56.70;;;;;;4987202;28;19933;-78
2021/01/11 14:22:11;;;;;;;;;;;4.20;56.40;;;;;;4984374;28;19926;-78
2021/01/11 14:24:37;;;;;;;;;;;4.20;56.50;;;;;;4990819;28;19980;-79
2021/01/11 14:27:04;;;;;;;;;;;4.10;56.90;;;;;;4968728;28;19926;-78
2021/01/11 14:29:30;;;;;;;;;;;4.20;57.60;;;;;;4990966;28;19976;-78
2021/01/11 14:31:57;;;;;;;;;;;4.30;57.60;;;;;;4996059;28;20021;-78